Time;durP1;ratioP1;P1;durP2;ratioP2;P2;SDS_P1;SDS_P2;PMS_P1;PMS_P2;Temp;Humidity;BMP_temperature;BMP_pressure;BME280_temperature;BME280_humidity;BME280_pressure;Samples;Min_cycle;Max_cycle;Signal;HPM_P1;HPM_P2
2023/10/28 00:00:29;;;;;;;1.13;0.97;;;15.30;90.70;;;;;;5063652;28;20482;-69
2023/10/28 00:02:56;;;;;;;0.70;0.70;;;15.20;90.60;;;;;;5046007;28;20515;-69
2023/10/28 00:05:23;;;;;;;0.80;0.80;;;15.20;90.70;;;;;;5034743;28;20575;-69
2023/10/28 00:07:51;;;;;;;0.80;0.80;;;15.10;90.60;;;;;;5051644;28;20944;-69
2023/10/28 00:10:21;;;;;;;1.90;0.93;;;15.10;90.70;;;;;;5051160;28;20448;-69
2023/10/28 00:12:49;;;;;;;0.90;0.87;;;15.10;90.90;;;;;;5051525;28;20484;-69
2023/10/28 00:15:18;;;;;;;0.93;0.83;;;15.10;90.90;;;;;;5040684;28;20464;-69
2023/10/28 00:17:47;;;;;;;0.70;0.70;;;15.10;91.00;;;;;;5031681;28;20485;-69
2023/10/28 00:20:17;;;;;;;1.80;0.90;;;15.00;90.90;;;;;;5032518;28;20943;-69
2023/10/28 00:22:44;;;;;;;2.87;1.00;;;15.00;91.00;;;;;;5050621;28;20483;-68
2023/10/28 00:25:13;;;;;;;0.83;0.67;;;15.00;91.10;;;;;;5051821;28;20444;-67
2023/10/28 00:27:40;;;;;;;0.73;0.73;;;15.00;91.00;;;;;;5051820;28;20943;-67
2023/10/28 00:30:09;;;;;;;0.70;0.70;;;15.00;91.10;;;;;;5052081;28;20475;-68
2023/10/28 00:32:36;;;;;;;3.50;0.97;;;15.00;90.90;;;;;;5045440;28;20871;-68
2023/10/28 00:35:05;;;;;;;2.23;0.97;;;15.00;90.90;;;;;;5035152;28;20459;-68
2023/10/28 00:37:31;;;;;;;2.17;0.90;;;14.90;90.90;;;;;;5055232;28;20452;-68
2023/10/28 00:39:58;;;;;;;2.50;0.80;;;14.90;91.00;;;;;;5054919;28;20459;-68
2023/10/28 00:42:27;;;;;;;2.97;0.80;;;14.90;91.10;;;;;;5054771;28;20483;-69
2023/10/28 00:44:55;;;;;;;1.10;0.90;;;14.90;91.20;;;;;;5054855;28;20449;-68
2023/10/28 00:47:23;;;;;;;2.40;0.90;;;14.90;91.10;;;;;;5003476;28;20448;-68
2023/10/28 00:49:50;;;;;;;1.73;0.90;;;14.90;91.40;;;;;;5053836;28;20517;-68
2023/10/28 00:52:19;;;;;;;2.23;1.03;;;14.80;90.90;;;;;;5036524;28;20483;-68
2023/10/28 00:54:47;;;;;;;0.90;0.87;;;14.90;91.10;;;;;;5055420;28;20517;-68
2023/10/28 00:57:17;;;;;;;1.60;0.90;;;14.90;91.10;;;;;;5039442;28;20480;-68
2023/10/28 00:59:45;;;;;;;2.10;0.93;;;14.80;91.10;;;;;;5035061;28;20441;-68
2023/10/28 01:02:13;;;;;;;1.23;0.87;;;14.80;91.10;;;;;;5035126;28;20902;-68
2023/10/28 01:04:40;;;;;;;1.03;0.77;;;14.90;91.20;;;;;;5043357;28;20459;-68
2023/10/28 01:07:09;;;;;;;1.23;1.13;;;14.80;91.10;;;;;;5046841;28;20547;-68
2023/10/28 01:09:46;;;;;;;0.90;0.90;;;14.80;91.20;;;;;;5054341;28;20447;-68
2023/10/28 01:12:13;;;;;;;2.40;1.20;;;14.80;91.30;;;;;;5054364;28;20719;-68
2023/10/28 01:14:40;;;;;;;2.13;1.40;;;14.70;91.40;;;;;;5054199;28;20583;-68
2023/10/28 01:17:09;;;;;;;1.83;0.87;;;14.80;91.60;;;;;;5053924;28;20455;-69
2023/10/28 01:19:36;;;;;;;1.07;1.00;;;14.70;91.50;;;;;;5052672;28;20818;-69
2023/10/28 01:22:05;;;;;;;1.57;1.10;;;14.70;91.50;;;;;;5053825;28;20940;-69
2023/10/28 01:24:34;;;;;;;2.90;1.07;;;14.70;91.70;;;;;;5054150;28;20440;-68
2023/10/28 01:27:01;;;;;;;1.53;0.90;;;14.70;91.90;;;;;;5053887;28;20542;-68
2023/10/28 01:29:29;;;;;;;1.00;0.93;;;14.70;91.90;;;;;;5054053;28;21007;-68
2023/10/28 01:31:56;;;;;;;1.57;1.10;;;14.70;91.80;;;;;;5054107;28;20452;-69
2023/10/28 01:34:23;;;;;;;1.30;1.07;;;14.70;91.90;;;;;;5041083;28;20489;-68
2023/10/28 01:36:50;;;;;;;1.47;1.03;;;14.80;91.90;;;;;;5033771;28;20465;-69
2023/10/28 01:39:19;;;;;;;2.00;1.10;;;14.80;91.80;;;;;;5034699;28;20835;-68
2023/10/28 01:41:45;;;;;;;1.47;1.37;;;14.80;91.70;;;;;;5034198;28;20481;-67
2023/10/28 01:44:14;;;;;;;1.60;0.97;;;14.80;91.50;;;;;;5035181;28;20457;-68
2023/10/28 01:46:41;;;;;;;3.50;1.10;;;14.80;91.50;;;;;;5034156;28;20481;-69
2023/10/28 01:49:08;;;;;;;1.47;1.20;;;14.70;91.60;;;;;;5033857;28;20445;-68
2023/10/28 01:51:34;;;;;;;2.00;1.13;;;14.70;91.50;;;;;;5051629;28;20448;-69
2023/10/28 01:54:01;;;;;;;1.80;1.27;;;14.80;91.50;;;;;;5053741;28;20491;-69
2023/10/28 01:56:30;;;;;;;4.00;1.77;;;14.80;91.30;;;;;;5053681;28;20444;-68
2023/10/28 01:58:56;;;;;;;3.70;1.23;;;14.80;91.30;;;;;;5053465;28;20476;-68
2023/10/28 02:01:25;;;;;;;1.50;1.00;;;14.80;91.10;;;;;;5042882;28;20967;-69
2023/10/28 02:03:53;;;;;;;1.57;1.20;;;14.70;91.00;;;;;;5033557;28;20445;-68
2023/10/28 02:06:20;;;;;;;0.87;0.87;;;14.70;90.90;;;;;;5033544;28;20441;-68
2023/10/28 02:08:48;;;;;;;1.73;1.17;;;14.70;91.10;;;;;;5033467;28;20472;-68
2023/10/28 02:11:15;;;;;;;1.40;1.07;;;14.80;91.00;;;;;;5033612;28;20501;-68
2023/10/28 02:13:43;;;;;;;1.40;0.90;;;14.80;90.80;;;;;;5033551;28;20507;-68
2023/10/28 02:16:10;;;;;;;3.27;1.57;;;14.80;90.70;;;;;;5033497;28;20480;-68
2023/10/28 02:18:37;;;;;;;1.50;1.07;;;14.80;90.80;;;;;;5032829;28;20442;-68
2023/10/28 02:21:05;;;;;;;1.57;1.20;;;14.80;90.70;;;;;;5044906;28;20452;-69
2023/10/28 02:23:32;;;;;;;1.47;1.00;;;14.80;90.80;;;;;;5053121;28;20476;-68
2023/10/28 02:25:59;;;;;;;1.63;0.93;;;14.80;90.60;;;;;;5053310;28;20445;-69
2023/10/28 02:28:26;;;;;;;1.60;1.03;;;14.80;90.70;;;;;;5052560;28;20944;-69
2023/10/28 02:30:54;;;;;;;1.77;1.10;;;15.00;90.70;;;;;;5048163;28;20449;-69
2023/10/28 02:33:22;;;;;;;2.50;1.23;;;15.00;90.50;;;;;;5032937;28;20477;-68
2023/10/28 02:35:49;;;;;;;4.07;1.40;;;15.00;90.30;;;;;;5032633;28;20985;-69
2023/10/28 02:38:19;;;;;;;2.50;1.03;;;15.00;90.30;;;;;;5032954;28;20825;-68
2023/10/28 02:40:47;;;;;;;2.20;0.90;;;15.00;90.10;;;;;;5035910;28;20506;-69
2023/10/28 02:43:14;;;;;;;1.87;1.10;;;15.00;90.10;;;;;;5052730;28;20487;-69
2023/10/28 02:45:41;;;;;;;1.63;0.90;;;15.00;90.10;;;;;;5052281;28;20460;-68
2023/10/28 02:48:09;;;;;;;4.83;1.60;;;15.10;90.10;;;;;;5052227;28;20491;-68
2023/10/28 02:50:37;;;;;;;1.67;1.30;;;15.10;90.00;;;;;;5043562;28;20450;-68
2023/10/28 02:53:04;;;;;;;2.67;1.13;;;15.10;90.00;;;;;;5048279;28;20445;-68
2023/10/28 02:55:31;;;;;;;3.10;1.30;;;15.00;89.70;;;;;;5031947;28;20454;-68
2023/10/28 02:57:57;;;;;;;3.00;1.10;;;15.00;89.90;;;;;;5030424;28;20441;-68
2023/10/28 03:00:24;;;;;;;2.90;1.20;;;15.10;89.80;;;;;;5032005;28;20469;-68
2023/10/28 03:02:52;;;;;;;3.17;1.50;;;15.10;89.80;;;;;;5052238;28;20470;-68
2023/10/28 03:05:22;;;;;;;2.97;1.60;;;15.10;89.20;;;;;;5052441;28;21168;-68
2023/10/28 03:07:50;;;;;;;3.00;1.33;;;15.10;89.20;;;;;;5052332;28;20504;-68
2023/10/28 03:10:15;;;;;;;2.70;1.20;;;15.10;89.00;;;;;;5052170;28;20440;-69
2023/10/28 03:12:42;;;;;;;5.07;1.63;;;15.10;88.60;;;;;;5051772;28;20975;-69
2023/10/28 03:15:10;;;;;;;3.20;1.37;;;15.10;88.60;;;;;;5052277;28;20226;-68
2023/10/28 03:17:38;;;;;;;3.47;1.30;;;15.20;88.10;;;;;;5052240;28;20464;-68
2023/10/28 03:20:08;;;;;;;5.73;1.90;;;15.10;88.10;;;;;;5047916;28;20543;-68
2023/10/28 03:22:36;;;;;;;4.77;1.57;;;15.20;88.30;;;;;;5051843;28;20459;-69
2023/10/28 03:25:04;;;;;;;2.73;1.50;;;15.20;88.40;;;;;;5051899;28;20443;-67
2023/10/28 03:27:32;;;;;;;3.17;1.43;;;15.20;88.20;;;;;;5052364;28;20449;-68
2023/10/28 03:29:59;;;;;;;2.87;1.50;;;15.20;88.00;;;;;;5051427;28;20448;-68
2023/10/28 03:32:26;;;;;;;5.30;1.40;;;15.10;87.90;;;;;;5033256;28;20475;-68
2023/10/28 03:34:53;;;;;;;5.50;1.23;;;15.10;87.80;;;;;;5036537;28;20485;-68
2023/10/28 03:37:20;;;;;;;4.60;1.27;;;15.10;87.90;;;;;;5032016;28;20995;-68
2023/10/28 03:39:48;;;;;;;6.57;1.70;;;15.10;87.90;;;;;;5031754;28;20817;-68
2023/10/28 03:42:14;;;;;;;5.63;2.03;;;15.20;87.20;;;;;;5031438;28;20485;-68
2023/10/28 03:44:41;;;;;;;2.63;1.43;;;15.10;88.10;;;;;;5044566;28;20479;-68
2023/10/28 03:47:08;;;;;;;2.60;1.30;;;15.10;88.00;;;;;;5051360;28;20448;-69
2023/10/28 03:49:36;;;;;;;4.83;1.57;;;15.10;87.90;;;;;;5036607;28;20536;-69
2023/10/28 03:52:04;;;;;;;5.90;2.10;;;15.10;87.70;;;;;;5051562;28;20959;-68
2023/10/28 03:54:31;;;;;;;4.83;1.70;;;15.20;88.00;;;;;;5048542;28;20487;-69
2023/10/28 03:57:00;;;;;;;4.30;1.67;;;15.20;88.00;;;;;;5031583;28;20491;-69
2023/10/28 03:59:27;;;;;;;5.47;1.57;;;15.30;88.10;;;;;;5013976;28;20460;-68
2023/10/28 04:01:53;;;;;;;6.27;2.33;;;15.30;88.10;;;;;;5031399;28;20449;-69
2023/10/28 04:04:20;;;;;;;5.90;1.73;;;15.30;87.70;;;;;;5031655;28;20568;-69
2023/10/28 04:06:47;;;;;;;3.27;1.33;;;15.30;87.70;;;;;;5043945;28;20460;-68
2023/10/28 04:09:14;;;;;;;2.10;1.43;;;15.30;87.70;;;;;;5049726;28;20451;-69
2023/10/28 04:11:41;;;;;;;4.97;1.50;;;15.30;87.90;;;;;;5031207;28;20925;-68
2023/10/28 04:14:09;;;;;;;3.83;1.57;;;15.30;87.40;;;;;;5031698;28;20508;-68
2023/10/28 04:16:36;;;;;;;3.17;1.50;;;15.30;87.40;;;;;;5031201;28;20469;-68
2023/10/28 04:19:03;;;;;;;5.07;1.50;;;15.40;87.60;;;;;;5031319;28;20956;-68
2023/10/28 04:21:30;;;;;;;5.70;1.77;;;15.40;87.30;;;;;;5041769;28;20457;-69
2023/10/28 04:23:57;;;;;;;5.77;1.83;;;15.30;87.00;;;;;;5051312;28;20475;-68
2023/10/28 04:26:24;;;;;;;4.00;2.00;;;15.40;87.20;;;;;;5051318;28;20467;-68
2023/10/28 04:28:51;;;;;;;3.43;1.50;;;15.40;87.20;;;;;;5051271;28;20519;-68
2023/10/28 04:31:19;;;;;;;3.83;1.63;;;15.50;87.00;;;;;;5033437;28;20461;-68
2023/10/28 04:33:46;;;;;;;4.73;2.07;;;15.50;87.00;;;;;;5031057;28;20481;-69
2023/10/28 04:36:13;;;;;;;4.87;1.67;;;15.50;86.70;;;;;;5031192;28;20515;-69
2023/10/28 04:38:40;;;;;;;3.13;1.47;;;15.50;86.70;;;;;;5031340;28;20484;-69
2023/10/28 04:41:08;;;;;;;2.73;1.67;;;15.50;86.70;;;;;;5035094;28;20564;-69
2023/10/28 04:43:35;;;;;;;3.37;1.63;;;15.60;86.80;;;;;;5031006;28;20992;-68
2023/10/28 04:46:02;;;;;;;3.50;1.47;;;15.50;86.50;;;;;;5030783;28;20926;-68
2023/10/28 04:48:30;;;;;;;2.70;1.40;;;15.50;86.30;;;;;;5042491;28;20571;-68
2023/10/28 04:50:57;;;;;;;4.93;1.70;;;15.60;86.80;;;;;;5043077;28;20460;-68
2023/10/28 04:53:24;;;;;;;5.73;1.90;;;15.60;86.30;;;;;;5049285;28;20476;-68
2023/10/28 04:55:51;;;;;;;3.73;1.80;;;15.50;86.10;;;;;;5043801;28;20484;-68
2023/10/28 04:58:18;;;;;;;3.10;1.53;;;15.60;86.00;;;;;;5033597;28;20816;-68
2023/10/28 05:00:45;;;;;;;3.07;1.33;;;15.60;85.80;;;;;;5030755;28;20504;-68
2023/10/28 05:03:12;;;;;;;3.00;1.20;;;15.60;85.60;;;;;;5037186;28;20454;-68
2023/10/28 05:05:41;;;;;;;3.30;1.57;;;15.70;85.60;;;;;;5051038;28;20452;-69
2023/10/28 05:08:08;;;;;;;2.47;1.37;;;15.70;85.30;;;;;;5051028;28;20444;-69
2023/10/28 05:10:35;;;;;;;2.50;1.23;;;15.70;85.20;;;;;;5050888;28;20539;-68
2023/10/28 05:13:03;;;;;;;3.33;1.40;;;15.70;85.30;;;;;;5050397;28;20551;-68
2023/10/28 05:15:30;;;;;;;2.33;1.27;;;15.70;85.20;;;;;;5050498;28;20567;-68
2023/10/28 05:17:56;;;;;;;4.03;1.50;;;15.70;85.10;;;;;;5045916;28;20808;-68
2023/10/28 05:20:24;;;;;;;3.10;1.63;;;15.70;84.70;;;;;;5041413;28;20543;-68
2023/10/28 05:22:52;;;;;;;3.50;1.37;;;15.70;84.90;;;;;;5036120;28;20496;-69
2023/10/28 05:25:19;;;;;;;2.13;1.20;;;15.70;85.60;;;;;;5034298;28;20465;-69
2023/10/28 05:27:46;;;;;;;3.73;1.63;;;15.80;84.90;;;;;;5016486;28;20953;-68
2023/10/28 05:30:14;;;;;;;2.63;1.37;;;15.80;84.60;;;;;;5034202;28;20539;-69
2023/10/28 05:32:41;;;;;;;3.47;1.30;;;15.80;84.70;;;;;;5048566;28;20535;-68
2023/10/28 05:35:10;;;;;;;2.47;1.07;;;15.80;84.30;;;;;;5053828;28;20490;-69
2023/10/28 05:37:37;;;;;;;2.20;1.37;;;15.80;84.30;;;;;;5054182;28;20522;-69
2023/10/28 05:40:10;;;;;;;2.60;1.27;;;15.80;84.30;;;;;;5054199;28;20448;-68
2023/10/28 05:42:37;;;;;;;1.73;1.10;;;15.80;84.10;;;;;;5039797;28;20488;-69
2023/10/28 05:45:07;;;;;;;2.73;1.40;;;15.80;84.20;;;;;;5034068;28;20465;-68
2023/10/28 05:47:34;;;;;;;2.10;1.13;;;15.90;83.80;;;;;;5033988;28;20456;-68
2023/10/28 05:50:04;;;;;;;1.43;1.27;;;15.90;83.30;;;;;;5036649;28;20541;-68
2023/10/28 05:52:34;;;;;;;6.47;2.33;;;15.80;83.10;;;;;;5052740;28;20461;-68
2023/10/28 05:55:03;;;;;;;2.60;1.07;;;15.80;82.90;;;;;;5053082;28;20488;-68
2023/10/28 05:57:32;;;;;;;1.63;1.13;;;15.80;82.70;;;;;;5053826;28;20473;-68
2023/10/28 05:59:58;;;;;;;2.67;1.10;;;15.90;82.30;;;;;;5053997;28;20448;-68
2023/10/28 06:02:25;;;;;;;2.97;1.10;;;15.90;82.30;;;;;;5042443;28;20488;-68
2023/10/28 06:04:53;;;;;;;1.37;1.00;;;15.90;82.40;;;;;;5033822;28;20463;-68
2023/10/28 06:07:20;;;;;;;1.53;1.30;;;15.90;81.80;;;;;;5033563;28;20445;-68
2023/10/28 06:09:47;;;;;;;2.73;1.33;;;15.90;81.70;;;;;;5033386;28;20540;-69
2023/10/28 06:12:14;;;;;;;2.17;1.50;;;15.90;80.60;;;;;;5045438;28;20494;-68
2023/10/28 06:14:43;;;;;;;2.20;1.20;;;15.90;81.30;;;;;;5053050;28;20499;-68
2023/10/28 06:17:11;;;;;;;2.03;1.13;;;15.90;81.30;;;;;;5035401;28;20483;-68
2023/10/28 06:19:40;;;;;;;3.10;1.40;;;15.90;81.30;;;;;;5033515;28;20982;-68
2023/10/28 06:22:07;;;;;;;2.57;1.27;;;16.00;81.40;;;;;;5036841;28;20489;-69
2023/10/28 06:24:34;;;;;;;0.80;0.80;;;16.00;81.00;;;;;;5053054;28;20480;-68
2023/10/28 06:27:02;;;;;;;1.53;1.20;;;15.90;80.00;;;;;;5052665;28;20460;-69
2023/10/28 06:29:29;;;;;;;2.23;1.00;;;15.90;81.00;;;;;;5053163;28;20448;-68
2023/10/28 06:31:58;;;;;;;3.40;1.13;;;16.00;80.80;;;;;;5055724;28;20445;-68
2023/10/28 06:34:27;;;;;;;1.13;1.00;;;16.00;80.70;;;;;;5069415;28;20490;-69
2023/10/28 06:36:54;;;;;;;1.67;1.10;;;16.00;80.50;;;;;;5063725;28;20446;-68
2023/10/28 06:39:21;;;;;;;3.10;1.30;;;16.00;80.00;;;;;;5071685;28;20448;-68
2023/10/28 06:41:48;;;;;;;2.40;1.30;;;16.00;80.00;;;;;;5079782;28;20866;-68
2023/10/28 06:44:15;;;;;;;2.63;1.50;;;16.00;80.00;;;;;;5011547;28;20940;-69
2023/10/28 06:46:42;;;;;;;1.67;0.97;;;16.10;80.00;;;;;;5052383;28;20895;-68
2023/10/28 06:49:10;;;;;;;3.77;1.07;;;16.00;79.50;;;;;;5052526;28;20448;-68
2023/10/28 06:51:37;;;;;;;2.77;1.23;;;16.00;79.50;;;;;;5051690;28;20452;-68
2023/10/28 06:54:04;;;;;;;3.50;1.50;;;16.00;79.50;;;;;;5051293;28;20472;-68
2023/10/28 06:56:31;;;;;;;2.07;1.23;;;16.10;79.80;;;;;;5051749;28;20499;-68
2023/10/28 06:58:58;;;;;;;3.00;1.20;;;16.10;79.70;;;;;;5052576;28;20874;-68
2023/10/28 07:01:26;;;;;;;1.53;1.10;;;16.10;79.40;;;;;;5052010;28;20449;-68
2023/10/28 07:03:53;;;;;;;4.30;1.33;;;16.20;79.80;;;;;;5052536;28;20536;-68
2023/10/28 07:06:21;;;;;;;3.63;1.47;;;16.20;79.60;;;;;;5052731;28;20745;-68
2023/10/28 07:08:48;;;;;;;2.27;1.23;;;16.20;80.00;;;;;;5052344;28;20458;-68
2023/10/28 07:11:15;;;;;;;4.23;1.13;;;16.20;80.00;;;;;;5052548;28;20990;-68
2023/10/28 07:13:42;;;;;;;2.40;1.30;;;16.30;80.20;;;;;;5052155;28;20467;-68
2023/10/28 07:16:10;;;;;;;4.50;1.73;;;16.30;79.70;;;;;;5038465;28;21004;-68
2023/10/28 07:18:37;;;;;;;2.33;1.30;;;16.30;79.90;;;;;;5036746;28;20457;-68
2023/10/28 07:21:04;;;;;;;3.47;1.10;;;16.30;81.00;;;;;;5065221;28;20470;-68
2023/10/28 07:23:33;;;;;;;3.40;1.57;;;16.30;79.80;;;;;;5032598;28;20457;-68
2023/10/28 07:26:01;;;;;;;2.63;1.20;;;16.30;80.00;;;;;;5032245;28;20473;-68
2023/10/28 07:28:33;;;;;;;4.50;1.30;;;16.30;79.20;;;;;;5049961;28;20464;-68
2023/10/28 07:31:02;;;;;;;2.67;1.57;;;16.40;79.60;;;;;;5052506;28;20470;-69
2023/10/28 07:33:29;;;;;;;3.40;1.00;;;16.40;79.30;;;;;;5050855;28;20451;-69
2023/10/28 07:35:56;;;;;;;3.60;1.87;;;16.40;79.40;;;;;;5051976;28;20484;-67
2023/10/28 07:38:23;;;;;;;1.60;1.30;;;16.50;79.40;;;;;;5039934;28;20568;-69
2023/10/28 07:40:54;;;;;;;2.23;1.17;;;16.50;79.40;;;;;;5014331;28;20788;-68
2023/10/28 07:43:21;;;;;;;3.30;1.63;;;16.40;78.30;;;;;;4998174;28;20472;-68
2023/10/28 07:45:48;;;;;;;2.50;1.27;;;16.40;78.50;;;;;;5055146;28;20538;-68
2023/10/28 07:48:15;;;;;;;4.47;1.73;;;16.50;79.20;;;;;;5072154;28;20554;-68
2023/10/28 07:50:43;;;;;;;2.20;1.20;;;16.50;78.70;;;;;;5060676;28;20526;-68
2023/10/28 07:53:11;;;;;;;4.33;1.80;;;16.60;78.70;;;;;;5050828;28;20487;-68
2023/10/28 07:55:39;;;;;;;2.60;1.20;;;16.60;78.40;;;;;;5001066;28;20495;-68
2023/10/28 07:58:07;;;;;;;2.10;1.10;;;16.70;77.70;;;;;;5052044;28;20452;-68
2023/10/28 08:00:36;;;;;;;3.17;1.43;;;16.60;77.70;;;;;;5052022;28;20534;-68
2023/10/28 08:03:03;;;;;;;2.53;1.47;;;16.50;77.60;;;;;;5052282;28;20476;-68
2023/10/28 08:05:30;;;;;;;2.30;1.27;;;16.60;77.90;;;;;;5034450;28;20819;-68
2023/10/28 08:07:57;;;;;;;1.23;1.10;;;16.60;78.20;;;;;;5065299;28;20444;-68
2023/10/28 08:10:24;;;;;;;5.73;1.63;;;16.70;77.60;;;;;;5063452;28;21043;-68
2023/10/28 08:12:52;;;;;;;2.30;1.27;;;16.60;76.90;;;;;;5059260;28;20444;-68
2023/10/28 08:15:21;;;;;;;1.80;1.20;;;16.50;76.50;;;;;;5051589;28;20528;-69
2023/10/28 08:17:48;;;;;;;1.33;1.20;;;16.60;78.10;;;;;;5032503;28;20455;-68
2023/10/28 08:20:15;;;;;;;2.40;1.23;;;16.50;77.20;;;;;;5031722;28;20444;-68
2023/10/28 08:22:44;;;;;;;3.33;1.43;;;16.60;77.40;;;;;;5045531;28;20484;-68
2023/10/28 08:25:15;;;;;;;2.13;0.90;;;16.60;77.50;;;;;;5040266;28;20446;-68
2023/10/28 08:27:42;;;;;;;2.73;1.30;;;16.70;77.40;;;;;;5031993;28;21042;-68
2023/10/28 08:30:10;;;;;;;2.73;1.33;;;16.80;77.50;;;;;;5032084;28;20445;-68
2023/10/28 08:32:39;;;;;;;2.53;1.47;;;16.80;77.20;;;;;;5031939;28;20469;-69
2023/10/28 08:35:06;;;;;;;2.00;1.27;;;16.90;77.30;;;;;;5032804;28;20909;-68
2023/10/28 08:37:33;;;;;;;4.90;1.63;;;16.90;77.00;;;;;;5033341;28;20547;-68
2023/10/28 08:40:00;;;;;;;3.97;1.60;;;17.10;77.00;;;;;;5051611;28;20527;-68
2023/10/28 08:42:28;;;;;;;2.53;1.17;;;17.20;76.70;;;;;;5051638;28;20483;-67
2023/10/28 08:44:58;;;;;;;1.97;1.27;;;17.20;76.00;;;;;;5051783;28;20542;-68
2023/10/28 08:47:27;;;;;;;2.40;1.30;;;17.20;76.00;;;;;;5050678;28;20462;-68
2023/10/28 08:49:56;;;;;;;2.07;1.30;;;17.40;76.10;;;;;;5039433;28;20453;-68
2023/10/28 08:52:24;;;;;;;3.73;1.60;;;17.40;75.80;;;;;;5034113;28;20527;-68
2023/10/28 08:54:52;;;;;;;4.40;1.20;;;17.60;75.50;;;;;;5055414;28;20462;-68
2023/10/28 08:57:20;;;;;;;4.53;1.40;;;17.60;75.40;;;;;;5053626;28;20492;-67
2023/10/28 08:59:47;;;;;;;4.27;1.60;;;17.60;75.20;;;;;;5047259;28;20484;-68
2023/10/28 09:02:13;;;;;;;2.30;1.17;;;17.70;75.60;;;;;;5034927;28;20445;-68
2023/10/28 09:04:41;;;;;;;1.93;1.30;;;17.80;74.80;;;;;;5034811;28;20234;-68
2023/10/28 09:07:10;;;;;;;1.77;1.00;;;17.90;75.30;;;;;;5035043;28;20206;-69
2023/10/28 09:09:37;;;;;;;4.83;1.47;;;18.10;74.80;;;;;;5040746;28;20575;-69
2023/10/28 09:12:07;;;;;;;2.77;1.37;;;18.20;74.10;;;;;;5051556;28;20206;-69
2023/10/28 09:14:34;;;;;;;3.00;1.37;;;18.20;73.20;;;;;;5054931;28;20971;-68
2023/10/28 09:17:02;;;;;;;2.83;1.50;;;18.20;71.50;;;;;;5054783;28;20846;-68
2023/10/28 09:19:31;;;;;;;2.73;1.57;;;18.10;72.50;;;;;;5034465;28;20495;-67
2023/10/28 09:21:58;;;;;;;2.40;1.30;;;18.30;73.30;;;;;;5048777;28;20482;-67
2023/10/28 09:24:27;;;;;;;3.17;1.70;;;18.40;71.20;;;;;;5036150;28;20452;-67
2023/10/28 09:26:54;;;;;;;4.53;1.43;;;18.50;72.10;;;;;;5034421;28;20512;-68
2023/10/28 09:29:25;;;;;;;2.73;1.10;;;18.60;72.30;;;;;;5034333;28;20473;-68
2023/10/28 09:31:52;;;;;;;6.30;1.60;;;18.60;71.10;;;;;;5033795;28;20242;-69
2023/10/28 09:34:19;;;;;;;3.97;1.20;;;18.70;71.40;;;;;;5033742;28;20540;-68
2023/10/28 09:36:46;;;;;;;2.57;1.27;;;18.60;71.90;;;;;;5034136;28;20521;-67
2023/10/28 09:39:14;;;;;;;2.90;1.13;;;18.60;71.30;;;;;;5034632;28;20468;-67
2023/10/28 09:41:44;;;;;;;3.17;1.67;;;18.50;71.20;;;;;;5033694;28;20855;-68
2023/10/28 09:44:13;;;;;;;2.63;1.30;;;18.50;71.60;;;;;;5034039;28;20508;-69
2023/10/28 09:46:43;;;;;;;2.77;1.23;;;18.50;72.00;;;;;;5033904;28;20445;-68
2023/10/28 09:49:12;;;;;;;3.17;1.50;;;18.40;71.10;;;;;;5033978;28;20340;-68
2023/10/28 09:51:41;;;;;;;2.07;1.20;;;18.40;71.70;;;;;;5033955;28;20445;-69
2023/10/28 09:54:12;;;;;;;3.37;1.30;;;18.40;72.20;;;;;;5030415;28;20440;-68
2023/10/28 09:56:43;;;;;;;4.10;1.53;;;18.40;72.70;;;;;;5053738;28;20488;-68
2023/10/28 09:59:18;;;;;;;2.10;1.10;;;18.50;72.80;;;;;;5053463;28;20213;-68
2023/10/28 10:02:01;;;;;;;3.70;1.70;;;18.60;72.50;;;;;;5002089;28;20486;-68
2023/10/28 10:04:36;;;;;;;3.37;1.73;;;18.60;72.00;;;;;;5053181;28;20292;-67
2023/10/28 10:07:03;;;;;;;4.07;1.47;;;18.60;71.90;;;;;;5036567;28;20440;-69
2023/10/28 10:09:41;;;;;;;2.67;1.10;;;18.70;72.70;;;;;;5053575;28;20186;-68
2023/10/28 10:12:09;;;;;;;3.50;1.43;;;18.80;72.10;;;;;;5053530;28;20955;-69
2023/10/28 10:14:45;;;;;;;2.43;1.43;;;18.80;71.40;;;;;;5002258;28;20289;-69
2023/10/28 10:17:22;;;;;;;2.87;1.57;;;18.80;71.40;;;;;;5053103;28;20233;-68
2023/10/28 10:19:50;;;;;;;5.70;1.83;;;18.80;70.90;;;;;;5053069;28;20728;-68
2023/10/28 10:22:18;;;;;;;2.70;1.23;;;18.80;71.10;;;;;;5053468;28;20575;-68
2023/10/28 10:24:51;;;;;;;3.07;1.50;;;18.80;71.00;;;;;;5035180;28;20802;-68
2023/10/28 10:27:34;;;;;;;7.03;1.43;;;18.80;70.20;;;;;;5053345;28;20284;-69
2023/10/28 10:30:07;;;;;;;5.27;1.70;;;18.80;70.40;;;;;;5052944;28;20474;-69
2023/10/28 10:32:42;;;;;;;4.90;1.53;;;18.80;70.40;;;;;;5053091;28;20202;-69
2023/10/28 10:35:13;;;;;;;3.93;1.70;;;18.80;69.60;;;;;;5053085;28;20439;-68
2023/10/28 10:37:40;;;;;;;3.03;1.33;;;18.80;69.40;;;;;;5053622;28;20230;-67
2023/10/28 10:40:09;;;;;;;3.77;1.50;;;18.80;69.20;;;;;;5035348;28;20673;-68
2023/10/28 10:42:37;;;;;;;3.37;1.50;;;18.80;69.00;;;;;;5049607;28;20222;-68
2023/10/28 10:45:07;;;;;;;3.40;1.67;;;18.70;69.50;;;;;;5064812;28;20259;-68
2023/10/28 10:47:35;;;;;;;3.53;1.53;;;18.80;70.20;;;;;;5072685;28;20237;-68
2023/10/28 10:50:03;;;;;;;3.70;1.60;;;18.70;68.80;;;;;;5043710;28;20202;-68
2023/10/28 10:52:30;;;;;;;2.80;1.60;;;18.70;69.20;;;;;;5019099;28;20236;-68
2023/10/28 10:55:00;;;;;;;4.03;1.47;;;18.60;67.80;;;;;;5052948;28;20226;-68
2023/10/28 10:57:30;;;;;;;6.40;2.00;;;18.50;69.10;;;;;;5043123;28;20223;-68
2023/10/28 10:59:58;;;;;;;4.73;1.97;;;18.50;69.40;;;;;;5044147;28;21096;-68
2023/10/28 11:02:26;;;;;;;3.80;2.10;;;18.60;69.20;;;;;;5048064;28;20452;-68
2023/10/28 11:04:55;;;;;;;4.50;2.47;;;18.70;69.00;;;;;;5072322;28;20937;-67
2023/10/28 11:07:22;;;;;;;4.10;1.80;;;18.70;69.10;;;;;;5051923;28;20325;-68
2023/10/28 11:09:49;;;;;;;4.80;1.97;;;18.70;67.90;;;;;;5033432;28;20778;-68
2023/10/28 11:12:23;;;;;;;5.60;2.10;;;18.70;67.90;;;;;;5039353;28;20542;-68
2023/10/28 11:14:50;;;;;;;4.37;1.90;;;18.60;67.30;;;;;;5046213;28;20284;-69
2023/10/28 11:17:17;;;;;;;7.20;2.83;;;18.70;68.80;;;;;;5072102;28;20235;-68
2023/10/28 11:19:50;;;;;;;4.83;2.20;;;18.70;68.50;;;;;;5046738;28;20808;-68
2023/10/28 11:22:17;;;;;;;6.27;2.63;;;18.70;67.90;;;;;;5037657;28;20555;-68
2023/10/28 11:24:44;;;;;;;4.60;2.37;;;18.70;68.20;;;;;;5051790;28;20622;-68
2023/10/28 11:27:19;;;;;;;4.47;2.60;;;18.80;67.60;;;;;;5050316;28;20204;-67
2023/10/28 11:29:46;;;;;;;4.83;2.33;;;18.80;67.60;;;;;;5049405;28;20225;-68
2023/10/28 11:32:13;;;;;;;4.03;2.50;;;18.80;67.80;;;;;;5042123;28;20229;-68
2023/10/28 11:34:41;;;;;;;11.10;3.33;;;18.80;67.70;;;;;;5050465;28;20651;-68
2023/10/28 11:37:10;;;;;;;5.50;2.53;;;18.80;66.70;;;;;;5047616;28;20221;-68
2023/10/28 11:39:38;;;;;;;5.87;2.70;;;18.70;67.80;;;;;;5045957;28;20289;-68
2023/10/28 11:42:09;;;;;;;7.13;3.00;;;18.70;67.90;;;;;;5036502;28;20561;-68
2023/10/28 11:44:36;;;;;;;5.73;2.10;;;18.80;68.20;;;;;;5035034;28;20993;-68
2023/10/28 11:47:05;;;;;;;3.43;1.80;;;18.80;67.30;;;;;;5035553;28;20284;-68
2023/10/28 11:49:32;;;;;;;5.80;2.50;;;18.60;68.60;;;;;;5033370;28;20225;-68
2023/10/28 11:51:59;;;;;;;1.73;1.40;;;18.50;70.60;;;;;;5060215;28;20316;-68
2023/10/28 11:54:28;;;;;;;4.20;1.47;;;18.30;71.00;;;;;;5071987;28;20477;-67
2023/10/28 11:56:55;;;;;;;2.93;1.77;;;18.20;71.90;;;;;;5055949;28;20229;-68
2023/10/28 11:59:21;;;;;;;7.67;1.77;;;18.10;72.80;;;;;;5051898;28;20297;-68
2023/10/28 12:01:50;;;;;;;4.20;1.77;;;17.90;73.90;;;;;;5051887;28;20216;-68
2023/10/28 12:04:17;;;;;;;3.93;1.90;;;17.80;74.00;;;;;;5052342;28;20205;-68
2023/10/28 12:06:45;;;;;;;4.67;1.83;;;17.70;74.70;;;;;;5052135;28;20297;-67
2023/10/28 12:09:12;;;;;;;4.87;1.73;;;17.80;75.70;;;;;;5051025;28;20526;-68
2023/10/28 12:11:40;;;;;;;5.23;1.90;;;17.70;75.70;;;;;;5051980;28;20872;-67
2023/10/28 12:14:08;;;;;;;5.30;2.00;;;17.50;76.90;;;;;;5051437;28;20843;-68
2023/10/28 12:16:37;;;;;;;6.67;2.00;;;17.30;77.90;;;;;;5051151;28;20480;-68
2023/10/28 12:19:05;;;;;;;6.20;2.00;;;17.20;78.60;;;;;;5034298;28;20481;-67
2023/10/28 12:21:32;;;;;;;6.07;2.53;;;17.20;79.40;;;;;;5050354;28;20828;-67
2023/10/28 12:23:59;;;;;;;5.80;1.73;;;17.10;80.00;;;;;;5051155;28;20460;-68
2023/10/28 12:26:27;;;;;;;5.90;2.10;;;17.10;81.10;;;;;;5046503;28;20538;-68
2023/10/28 12:28:55;;;;;;;4.87;2.00;;;17.00;81.50;;;;;;5058782;28;20439;-68
2023/10/28 12:31:23;;;;;;;5.53;1.87;;;16.90;82.20;;;;;;5076096;28;20438;-67
2023/10/28 12:33:50;;;;;;;4.57;1.83;;;16.90;82.50;;;;;;5056703;28;20444;-68
2023/10/28 12:36:18;;;;;;;6.13;2.20;;;17.00;82.90;;;;;;5055502;28;20851;-68
2023/10/28 12:38:45;;;;;;;5.07;2.17;;;17.00;82.60;;;;;;5055013;28;20523;-68
2023/10/28 12:41:13;;;;;;;3.93;1.73;;;17.20;83.00;;;;;;5055061;28;21010;-68
2023/10/28 12:43:40;;;;;;;5.57;2.63;;;17.30;83.00;;;;;;5055216;28;20474;-67
2023/10/28 12:46:11;;;;;;;3.67;1.53;;;17.40;82.90;;;;;;5055481;28;20792;-67
2023/10/28 12:48:38;;;;;;;5.13;1.73;;;17.40;83.00;;;;;;5055283;28;20454;-68
2023/10/28 12:51:05;;;;;;;6.63;2.17;;;17.50;82.90;;;;;;5055663;28;20454;-68